Wednesday, October 18, 2017, 2:42 AM CDT
Back to Local

KWLD, Strother Field

Location: Winfield, KS, United States Lat: 37.167
Local Time: 2:42 AM CDT ( 7:42 GMT) Lon: -97.033
Time Zone: US/Central Elev: 1161 ft

Show me the last for .
Show Decoded

2017-10-18 01:54 METAR KWLD 180654Z AUTO 16008KT 10SM CLR 12/08 A3009 RMK AO2 SLP183 T01220078 =
2017-10-18 00:54 METAR KWLD 180554Z AUTO 17006KT 10SM CLR 12/08 A3010 RMK AO2 SLP189 T01170083
                 10172 20111 402280078 58006 =
2017-10-17 23:54 METAR KWLD 180454Z AUTO 16007KT 10SM CLR 12/09 A3011 RMK AO2 SLP193 T01220089 =
2017-10-17 22:54 METAR KWLD 180354Z AUTO 15006KT 10SM CLR 13/09 A3012 RMK AO2 SLP196 T01280089 =
2017-10-17 21:54 METAR KWLD 180254Z AUTO 14006KT 10SM CLR 13/08 A3012 RMK AO2 SLP197 T01330083
                 51011 =
2017-10-17 20:54 METAR KWLD 180154Z AUTO 14005KT 10SM CLR 14/09 A3011 RMK AO2 SLP196 T01440089 =
2017-10-17 19:54 METAR KWLD 180054Z AUTO 14005KT 10SM CLR 16/08 A3011 RMK AO2 SLP194 T01610078 =
2017-10-17 18:54 METAR KWLD 172354Z AUTO 16007KT 10SM CLR 17/08 A3009 RMK AO2 SLP186 T01720083
                 10228 20172 56010 =
2017-10-17 17:54 METAR KWLD 172254Z AUTO 18012KT 10SM CLR 21/07 A3009 RMK AO2 SLP187 T02110072 =
2017-10-17 16:54 METAR KWLD 172154Z AUTO 18010G17KT 10SM CLR 22/07 A3010 RMK AO2 SLP190 T02220072
                 =
2017-10-17 15:54 METAR KWLD 172054Z AUTO 18015KT 10SM CLR 22/07 A3012 RMK AO2 SLP195 T02220072
                 56027 =
2017-10-17 14:54 METAR KWLD 171954Z AUTO 20016G21KT 10SM CLR 23/07 A3014 RMK AO2 SLP202 T02280072
                 =
2017-10-17 13:54 METAR KWLD 171854Z AUTO 21016G21KT 10SM CLR 22/07 A3017 RMK AO2 SLP212 T02170072
                 =
2017-10-17 12:54 METAR KWLD 171754Z AUTO 21015G23KT 10SM CLR 21/07 A3020 RMK AO2 SLP223 T02110072
                 10211 20078 58013 =
2017-10-17 11:54 METAR KWLD 171654Z AUTO 21017G23KT 10SM CLR 19/07 A3022 RMK AO2 PK WND
                 21026/1641 SLP230 T01940072 =
2017-10-17 10:54 METAR KWLD 171554Z AUTO 20014G21KT 10SM CLR 18/06 A3023 RMK AO2 SLP235 T01780061
                 =
2017-10-17 09:54 METAR KWLD 171454Z AUTO 19011KT 10SM CLR 15/07 A3024 RMK AO2 SLP239 T01500072
                 53001 =
2017-10-17 08:54 METAR KWLD 171354Z AUTO 17010KT 10SM CLR 11/07 A3023 RMK AO2 SLP238 T01110067 =
2017-10-17 07:54 METAR KWLD 171254Z AUTO 17009KT 10SM CLR 08/06 A3022 RMK AO2 SLP234 T00830056 =
2017-10-17 06:54 METAR KWLD 171154Z AUTO 17006KT 10SM CLR 08/06 A3024 RMK AO2 SLP240 T00780056
                 10100 20078 53003 =
2017-10-17 05:54 METAR KWLD 171054Z AUTO 18007KT 10SM CLR 08/06 A3023 RMK AO2 SLP235 T00830056 =
2017-10-17 04:54 METAR KWLD 170954Z AUTO 16006KT 10SM CLR 08/06 A3023 RMK AO2 SLP234 T00830056 =
2017-10-17 03:54 METAR KWLD 170854Z AUTO 16006KT 10SM CLR 09/06 A3023 RMK AO2 SLP234 T00890056
                 58009 =
2017-10-17 02:54 METAR KWLD 170754Z AUTO 16005KT 10SM CLR 08/06 A3025 RMK AO2 SLP240 T00830056 =

Support USWX by starting your Amazon purchase here.